Aviation Digital Data Service (ADDS)

Output produced by METARs form (0749 UTC 23 July 2018)
found at http://www.aviationweather.gov/adds/metars/
 
KUCP 230656Z AUTO 11005KT 10SM OVC048 20/20 A2986 RMK AO2 SLP118 T02000200
KUCP 230556Z AUTO 00000KT 10SM CLR 21/20 A2987 RMK AO2 SLP121 T02060200 10222 20206 50001
KUCP 230456Z AUTO 11005KT 10SM FEW110 21/20 A2987 RMK AO2 SLP123 T02060200 402720161
KUCP 230356Z AUTO 11003KT 10SM BKN085 21/20 A2987 RMK AO2 SLP124 T02060200
KUCP 230256Z AUTO 11003KT 10SM FEW050 SCT120 21/20 A2986 RMK AO2 SLP121 T02110200 51014
KUCP 230156Z AUTO 13004KT 10SM BKN060 22/19 A2986 RMK AO2 SLP120 T02170194
KUCP 230127Z AUTO VRB04KT 10SM FEW029 BKN050 OVC060 22/20 A2985 RMK AO2
KUCP 230056Z AUTO 12005KT 10SM BKN029 BKN120 22/21 A2984 RMK AO2 SLP114 T02220211
KUCP 222356Z AUTO 13005KT 10SM FEW055 22/21 A2982 RMK AO2 RAE17 SLP108 P0001 60002 T02220211 10272 20217 53012
KUCP 222256Z AUTO VRB04G14KT 3SM +RA BR FEW014 BKN035 BKN050 22/21 A2981 RMK AO2 RAB43 SLP104 P0001 T02170211
KUCP 222156Z AUTO 02004KT 10SM BKN032 BKN070 OVC120 24/21 A2979 RMK AO2 RAB26E42 SLP095 P0000 T02390211
KUCP 222056Z AUTO 06005KT 10SM FEW032 SCT060 OVC085 25/19 A2979 RMK AO2 SLP095 T02500194 55002
KUCP 221956Z AUTO 05007KT 10SM SCT033 BKN041 26/19 A2978 RMK AO2 SLP091 T02610189
KUCP 221856Z AUTO 14005KT 9SM SCT035 SCT042 SCT095 27/18 A2979 RMK AO2 SLP093 T02720183
KUCP 221819Z AUTO 00000KT 10SM SCT033 25/18 A2979 RMK AO2
KUCP 221756Z AUTO 00000KT 10SM OVC029 24/18 A2980 RMK AO2 SLP097 T02440178 10250 20167 50001
KUCP 221656Z AUTO VRB03KT 10SM BKN022 23/17 A2980 RMK AO2 SLP098 T02330172
KUCP 221646Z AUTO VRB06KT 10SM SCT019 23/17 A2980 RMK AO2
KUCP 221556Z AUTO VRB03KT 10SM OVC017 21/17 A2979 RMK AO2 SLP096 T02110172
KUCP 221456Z AUTO 00000KT 10SM OVC015 19/17 A2978 RMK AO2 SLP093 T01940167 53000
KUCP 221356Z AUTO 00000KT 10SM OVC013 19/17 A2977 RMK AO2 SLP091 T01890167
KUCP 221256Z AUTO 00000KT 10SM BKN011 OVC014 18/17 A2978 RMK AO2 CIG 007V012 SLP093 T01780167
KUCP 221249Z AUTO 03003KT 10SM FEW007 BKN014 18/17 A2978 RMK AO2
KUCP 221236Z AUTO 00000KT 10SM SCT007 SCT012 BKN017 17/17 A2978 RMK AO2
KUCP 221216Z AUTO 00000KT 10SM BKN017 17/17 A2978 RMK AO2
KUCP 221156Z AUTO 00000KT 10SM SCT017 17/17 A2978 RMK AO2 RAE06 SLP092 P0000 60001 70001 T01670167 10178 20161 53007
KUCP 221056Z AUTO 03003KT 10SM -RA FEW029 SCT050 OVC120 16/16 A2976 RMK AO2 RAB0959 SLP087 P0001 T01610161
KUCP 220956Z AUTO 03004KT 10SM FEW039 SCT075 17/16 A2976 RMK AO2 SLP085 T01670156
KUCP 220942Z AUTO 00000KT 10SM FEW013 BKN075 BKN120 17/16 A2976 RMK AO2
KUCP 220856Z AUTO 06003KT 10SM BKN017 OVC120 17/16 A2976 RMK AO2 SLP084 T01670156 56017
KUCP 220843Z AUTO 07005KT 10SM BKN017 BKN120 17/16 A2975 RMK AO2
KUCP 220831Z AUTO 00000KT 10SM SCT015 BKN120 17/16 A2976 RMK AO2
KUCP 220819Z AUTO 05004KT 10SM BKN015 BKN120 17/16 A2975 RMK AO2
KUCP 220756Z AUTO 07003KT 10SM SCT015 SCT120 17/16 A2976 RMK AO2 SLP085 T01720156